Decoded Metar for KSIK ( in ) (IATA:) | Meteo·Mobile Aviation Weather
aviador You're here:

KSIK Decoded Metar

in
Report Time2018-11-18 20:55:00
UTC Time2018-11-18 21:05:17
Flight Rules mvfr MVFR
Wind020° at 03 kt
W.Decomp.*RWY 03: 3.0 kt HW 0.5 kt LCW
RWY 02: 3.0 kt HW -0 kt LCW
W.Rank020° ranks 11
Current wind is below 020° avg. (6.6)
Visibility8047 m
Phenomena:Haze
Clouds:Overcast 015 Hf
Expected CloudBase > 1,200 ft AGL from Temp-Dew spread
Ceiling1,500 ft
Temp08°C
Dew Point05°C (82% RH)
AAT5.8°C
QNH1022 hPa
Raw Report
KSIK 182055Z AUTO 02003KT 5SM HZ OVC015 08/05 A3018 RMK AO2=

Extra information for KSIK:More info

Social comments